Time;durP1;ratioP1;P1;durP2;ratioP2;P2;SDS_P1;SDS_P2;PMS_P1;PMS_P2;Temp;Humidity;BMP_temperature;BMP_pressure;BME280_temperature;BME280_humidity;BME280_pressure;Samples;Min_cycle;Max_cycle;Signal;HPM_P1;HPM_P2
2021/09/10 00:02:09;;;;;;;76.13;47.40;;;18.80;99.90;;;;;;4846703;29;20783;-89
2021/09/10 00:04:35;;;;;;;67.13;41.58;;;18.80;99.90;;;;;;4838391;29;20052;-89
2021/09/10 00:07:00;;;;;;;67.80;44.33;;;18.80;99.90;;;;;;4850853;29;20081;-89
2021/09/10 00:09:26;;;;;;;64.10;41.80;;;18.90;99.90;;;;;;4857760;29;20041;-89
2021/09/10 00:11:52;;;;;;;62.97;41.78;;;18.80;99.90;;;;;;4856598;29;20065;-89
2021/09/10 00:14:17;;;;;;;60.75;39.15;;;18.80;99.90;;;;;;4852665;29;20055;-88
2021/09/10 00:16:43;;;;;;;45.55;33.80;;;18.80;99.90;;;;;;4857978;29;20093;-88
2021/09/10 00:19:09;;;;;;;53.10;36.35;;;18.80;99.90;;;;;;4835457;29;20267;-88
2021/09/10 00:21:35;;;;;;;69.65;43.83;;;18.80;99.90;;;;;;4857347;29;20061;-89
2021/09/10 00:24:01;;;;;;;68.85;44.30;;;18.80;99.90;;;;;;4866000;29;20053;-88
2021/09/10 00:26:26;;;;;;;69.38;40.53;;;18.80;99.90;;;;;;4844994;29;20108;-88
2021/09/10 00:28:52;;;;;;;50.15;35.03;;;18.80;99.90;;;;;;4865071;29;20058;-88
2021/09/10 00:31:18;;;;;;;70.93;43.28;;;18.80;99.90;;;;;;4856021;29;20137;-88
2021/09/10 00:33:43;;;;;;;68.43;43.15;;;18.70;99.90;;;;;;4857068;29;20045;-88
2021/09/10 00:36:09;;;;;;;62.90;41.38;;;18.70;99.90;;;;;;4857147;29;20045;-89
2021/09/10 00:38:35;;;;;;;61.35;38.85;;;18.70;99.90;;;;;;4855547;29;20053;-89
2021/09/10 00:41:01;;;;;;;50.72;34.70;;;18.70;99.90;;;;;;4866011;29;20060;-87
2021/09/10 00:43:27;;;;;;;55.70;36.00;;;18.60;99.90;;;;;;4856402;29;20414;-89
2021/09/10 00:45:57;;;;;;;58.50;38.08;;;18.60;99.90;;;;;;4849734;29;20084;-88
2021/09/10 00:48:23;;;;;;;68.47;42.58;;;18.60;99.90;;;;;;4856673;29;20608;-89
2021/09/10 00:50:49;;;;;;;67.68;42.97;;;18.60;99.90;;;;;;4826876;29;20061;-89
2021/09/10 00:53:16;;;;;;;67.47;40.45;;;18.60;99.90;;;;;;4855587;29;20602;-88
2021/09/10 00:55:44;;;;;;;60.08;37.28;;;18.60;99.90;;;;;;4841450;29;20072;-88
2021/09/10 00:58:09;;;;;;;44.05;29.10;;;18.50;99.90;;;;;;4857089;29;20093;-88
2021/09/10 01:00:35;;;;;;;49.35;32.70;;;18.50;99.90;;;;;;4856696;29;20049;-89
2021/09/10 01:03:01;;;;;;;59.08;37.40;;;18.50;99.90;;;;;;4851443;29;20360;-89
2021/09/10 01:05:27;;;;;;;62.40;37.55;;;18.50;99.90;;;;;;4856373;29;20045;-89
2021/09/10 01:07:56;;;;;;;58.05;39.42;;;18.50;99.90;;;;;;4803639;29;20057;-89
2021/09/10 01:10:22;;;;;;;65.63;41.47;;;18.50;99.90;;;;;;4856535;29;20053;-90
2021/09/10 01:12:49;;;;;;;47.78;30.05;;;18.50;99.90;;;;;;4855960;29;20554;-91
2021/09/10 01:15:15;;;;;;;45.40;30.55;;;18.50;99.90;;;;;;4840659;29;20045;-90
2021/09/10 01:17:41;;;;;;;58.10;37.28;;;18.50;99.90;;;;;;4856594;29;20053;-90
2021/09/10 01:20:09;;;;;;;41.33;29.60;;;18.50;99.90;;;;;;4855481;29;20056;-90
2021/09/10 01:22:36;;;;;;;48.75;31.40;;;18.50;99.90;;;;;;4847198;29;20125;-90
2021/09/10 01:25:11;;;;;;;44.40;30.02;;;18.50;99.90;;;;;;4860894;29;20100;-90
2021/09/10 01:27:43;;;;;;;46.03;29.80;;;18.50;99.90;;;;;;4858656;29;20101;-90
2021/09/10 01:30:12;;;;;;;52.85;36.60;;;18.40;99.90;;;;;;4853837;29;20124;-90
2021/09/10 01:32:38;;;;;;;55.30;37.63;;;18.50;99.90;;;;;;4856821;29;20184;-90
2021/09/10 01:35:04;;;;;;;52.17;34.13;;;18.40;99.90;;;;;;4851985;29;20121;-90
2021/09/10 01:37:30;;;;;;;44.58;30.80;;;18.40;99.90;;;;;;4854758;29;20077;-90
2021/09/10 01:39:56;;;;;;;54.58;34.33;;;18.40;99.90;;;;;;4831155;29;20416;-89
2021/09/10 01:42:22;;;;;;;51.88;33.85;;;18.30;99.90;;;;;;4855172;29;20045;-90
2021/09/10 01:44:48;;;;;;;57.67;35.22;;;18.30;99.90;;;;;;4833041;29;20182;-90
2021/09/10 01:47:13;;;;;;;40.22;26.48;;;18.30;99.90;;;;;;4852123;29;20124;-90
2021/09/10 01:49:39;;;;;;;58.38;35.65;;;18.30;99.90;;;;;;4852808;29;20049;-90
2021/09/10 01:52:05;;;;;;;51.78;33.75;;;18.30;99.90;;;;;;4849120;29;20061;-90
2021/09/10 01:54:31;;;;;;;59.95;37.50;;;18.30;99.90;;;;;;4855467;29;20045;-91
2021/09/10 01:56:57;;;;;;;56.17;33.85;;;18.30;99.90;;;;;;4848313;29;20390;-90
2021/09/10 01:59:23;;;;;;;43.38;28.58;;;18.30;99.90;;;;;;4850270;29;20101;-90
2021/09/10 02:01:49;;;;;;;49.00;31.17;;;18.30;99.90;;;;;;4833277;29;20077;-91
2021/09/10 02:04:14;;;;;;;38.58;24.95;;;18.30;99.90;;;;;;4871506;29;20515;-92
2021/09/10 02:06:40;;;;;;;41.78;28.35;;;18.30;99.90;;;;;;4851845;29;20046;-92
2021/09/10 02:09:06;;;;;;;52.58;34.05;;;18.30;99.90;;;;;;4845596;29;20061;-92
2021/09/10 02:11:31;;;;;;;43.75;32.20;;;18.30;99.90;;;;;;4857280;29;20133;-91
2021/09/10 02:13:57;;;;;;;52.92;33.83;;;18.30;99.90;;;;;;4865835;29;20140;-90
2021/09/10 02:16:23;;;;;;;49.63;33.97;;;18.30;99.90;;;;;;4855384;29;20106;-91
2021/09/10 02:18:49;;;;;;;47.10;30.10;;;18.30;99.90;;;;;;4848935;29;20136;-91
2021/09/10 02:21:14;;;;;;;43.92;28.00;;;18.30;99.90;;;;;;4841132;29;20061;-91
2021/09/10 02:23:41;;;;;;;53.78;32.28;;;18.30;99.90;;;;;;4855143;29;20776;-91
2021/09/10 02:26:06;;;;;;;42.08;27.73;;;18.30;99.90;;;;;;4850286;29;20137;-90
2021/09/10 02:28:32;;;;;;;36.55;25.05;;;18.30;99.90;;;;;;4833577;29;20498;-91
2021/09/10 02:30:58;;;;;;;39.95;26.95;;;18.30;99.90;;;;;;4845231;29;20460;-90
2021/09/10 02:33:23;;;;;;;44.95;29.23;;;18.30;99.90;;;;;;4853933;29;20084;-91
2021/09/10 02:35:49;;;;;;;39.72;27.52;;;18.30;99.90;;;;;;4825975;29;20117;-92
2021/09/10 02:38:15;;;;;;;42.25;27.30;;;18.30;99.90;;;;;;4855349;29;20045;-91
2021/09/10 02:40:41;;;;;;;36.90;25.40;;;18.30;99.90;;;;;;4856268;29;20041;-92
2021/09/10 02:43:07;;;;;;;38.03;23.85;;;18.30;99.90;;;;;;4839870;29;20050;-92
2021/09/10 02:45:33;;;;;;;37.25;26.23;;;18.30;99.90;;;;;;4856043;29;20121;-91
2021/09/10 02:47:58;;;;;;;39.28;23.55;;;18.30;99.90;;;;;;4856599;29;20133;-91
2021/09/10 02:50:24;;;;;;;41.40;26.35;;;18.30;99.90;;;;;;4852201;29;20078;-92
2021/09/10 02:52:53;;;;;;;28.35;19.75;;;18.30;99.90;;;;;;4828965;29;20535;-92
2021/09/10 02:55:19;;;;;;;36.80;22.77;;;18.30;99.90;;;;;;4848787;29;20049;-92
2021/09/10 02:57:45;;;;;;;33.90;21.38;;;18.30;99.90;;;;;;4853649;29;20072;-91
2021/09/10 03:00:11;;;;;;;26.75;18.65;;;18.30;99.90;;;;;;4873065;29;20045;-92
2021/09/10 03:02:37;;;;;;;28.55;16.80;;;18.40;99.90;;;;;;4877080;29;20104;-91
2021/09/10 03:05:07;;;;;;;26.38;18.25;;;18.40;99.90;;;;;;4861535;29;20057;-90
2021/09/10 03:07:32;;;;;;;32.60;20.40;;;18.40;99.90;;;;;;4858194;29;20112;-91
2021/09/10 03:09:58;;;;;;;29.25;21.77;;;18.40;99.90;;;;;;4859084;29;20049;-92
2021/09/10 03:12:24;;;;;;;29.17;20.33;;;18.40;99.90;;;;;;4857593;29;20123;-92
2021/09/10 03:14:50;;;;;;;25.08;18.58;;;18.40;99.90;;;;;;4869938;29;20048;-91
2021/09/10 03:17:15;;;;;;;28.48;18.38;;;18.40;99.90;;;;;;4870612;29;20081;-92
2021/09/10 03:19:41;;;;;;;23.67;16.75;;;18.40;99.90;;;;;;4877011;29;20093;-91
2021/09/10 03:22:07;;;;;;;25.42;19.27;;;18.40;99.90;;;;;;4861743;29;20139;-90
2021/09/10 03:24:33;;;;;;;28.08;18.95;;;18.40;99.90;;;;;;4861516;29;20053;-90
2021/09/10 03:26:59;;;;;;;32.67;21.05;;;18.50;99.90;;;;;;4877873;29;20102;-92
2021/09/10 03:29:24;;;;;;;27.48;19.52;;;18.40;99.90;;;;;;4877328;29;20501;-92
2021/09/10 03:31:50;;;;;;;26.23;16.05;;;18.40;99.90;;;;;;4854044;29;20109;-91
2021/09/10 03:34:16;;;;;;;29.85;17.25;;;18.40;99.90;;;;;;4876437;29;20497;-90
2021/09/10 03:36:41;;;;;;;24.08;17.58;;;18.40;99.90;;;;;;4861586;29;20275;-90
2021/09/10 03:39:07;;;;;;;35.17;21.00;;;18.40;99.90;;;;;;4868836;29;20092;-90
2021/09/10 03:41:33;;;;;;;29.15;18.30;;;18.40;99.90;;;;;;4857345;29;20056;-90
2021/09/10 03:43:58;;;;;;;26.15;17.65;;;18.40;99.90;;;;;;4847185;29;20049;-90
2021/09/10 03:46:24;;;;;;;30.65;21.02;;;18.40;99.90;;;;;;4860930;29;20059;-91
2021/09/10 03:48:50;;;;;;;33.45;20.40;;;18.40;99.90;;;;;;4861759;29;20451;-91
2021/09/10 03:51:16;;;;;;;21.00;16.33;;;18.40;99.90;;;;;;4849232;29;20542;-91
2021/09/10 03:53:42;;;;;;;30.52;20.10;;;18.40;99.90;;;;;;4861333;29;20113;-92
2021/09/10 03:56:08;;;;;;;23.63;16.70;;;18.40;99.90;;;;;;4861065;29;20835;-90
2021/09/10 03:58:34;;;;;;;28.70;19.80;;;18.40;99.90;;;;;;4860795;29;20056;-91
2021/09/10 04:01:00;;;;;;;38.15;23.00;;;18.40;99.90;;;;;;4845514;29;20084;-90
2021/09/10 04:03:26;;;;;;;35.55;22.23;;;18.40;99.90;;;;;;4858372;29;20092;-90
2021/09/10 04:05:52;;;;;;;35.90;22.17;;;18.30;99.90;;;;;;4861053;29;20048;-91
2021/09/10 04:08:18;;;;;;;31.08;21.45;;;18.30;99.90;;;;;;4865760;29;20514;-92
2021/09/10 04:10:43;;;;;;;24.45;16.90;;;18.30;99.90;;;;;;4840697;29;20060;-92
2021/09/10 04:13:10;;;;;;;32.08;21.35;;;18.30;99.90;;;;;;4851076;29;20056;-90
2021/09/10 04:15:36;;;;;;;32.17;20.67;;;18.30;99.90;;;;;;4844002;29;20052;-90
2021/09/10 04:18:02;;;;;;;29.60;19.67;;;18.30;99.90;;;;;;4861352;29;20126;-91
2021/09/10 04:20:28;;;;;;;28.02;17.80;;;18.30;99.90;;;;;;4876420;29;20049;-91
2021/09/10 04:22:54;;;;;;;20.38;15.63;;;18.30;99.90;;;;;;4858739;29;20048;-90
2021/09/10 04:25:20;;;;;;;36.03;20.10;;;18.30;99.90;;;;;;4875443;29;20053;-91
2021/09/10 04:27:46;;;;;;;29.05;18.55;;;18.30;99.90;;;;;;4847843;29;20049;-90
2021/09/10 04:30:12;;;;;;;24.45;17.92;;;18.30;99.90;;;;;;4860234;29;20497;-90
2021/09/10 04:32:38;;;;;;;33.35;21.85;;;18.30;99.90;;;;;;4856159;29;20060;-90
2021/09/10 04:35:05;;;;;;;24.75;16.77;;;18.40;99.90;;;;;;4875860;29;20049;-90
2021/09/10 04:37:31;;;;;;;25.48;17.67;;;18.30;99.90;;;;;;4860111;29;20127;-91
2021/09/10 04:39:56;;;;;;;24.15;16.52;;;18.30;99.90;;;;;;4844914;29;20474;-91
2021/09/10 04:42:22;;;;;;;25.63;16.67;;;18.30;99.90;;;;;;4857256;29;20079;-91
2021/09/10 04:44:48;;;;;;;29.20;17.50;;;18.30;99.90;;;;;;4841973;29;20113;-91
2021/09/10 04:47:14;;;;;;;22.90;17.30;;;18.40;99.90;;;;;;4860304;29;20053;-91
2021/09/10 04:49:41;;;;;;;23.58;14.73;;;18.40;99.90;;;;;;4860277;29;20053;-92
2021/09/10 04:52:07;;;;;;;24.88;16.02;;;18.40;99.90;;;;;;4859118;29;20061;-92
2021/09/10 04:54:33;;;;;;;23.83;17.52;;;18.40;99.90;;;;;;4813595;29;20419;-93
2021/09/10 04:56:59;;;;;;;22.80;15.73;;;18.40;99.90;;;;;;4829401;29;20508;-90
2021/09/10 04:59:25;;;;;;;33.50;18.25;;;18.30;99.90;;;;;;4859135;29;20065;-90
2021/09/10 05:01:51;;;;;;;25.05;18.20;;;18.30;99.90;;;;;;4870206;29;20057;-90
2021/09/10 05:04:18;;;;;;;25.13;16.25;;;18.30;99.90;;;;;;4834149;29;20057;-90
2021/09/10 05:06:43;;;;;;;27.98;19.00;;;18.30;99.90;;;;;;4876009;29;20510;-90
2021/09/10 05:09:09;;;;;;;24.42;18.20;;;18.20;99.90;;;;;;4860183;29;20044;-90
2021/09/10 05:11:35;;;;;;;30.67;18.10;;;18.30;99.90;;;;;;4874418;29;20463;-91
2021/09/10 05:14:01;;;;;;;29.80;19.95;;;18.30;99.90;;;;;;4875152;29;20615;-91
2021/09/10 05:16:27;;;;;;;25.52;18.60;;;18.30;99.90;;;;;;4859581;29;20042;-91
2021/09/10 05:18:53;;;;;;;29.00;18.42;;;18.20;99.90;;;;;;4860064;29;20052;-91
2021/09/10 05:21:18;;;;;;;27.85;18.80;;;18.20;99.90;;;;;;4871201;29;20120;-91
2021/09/10 05:23:44;;;;;;;23.38;16.05;;;18.20;99.90;;;;;;4859949;29;20064;-90
2021/09/10 05:26:10;;;;;;;24.08;17.15;;;18.10;99.90;;;;;;4843975;29;20485;-91
2021/09/10 05:28:36;;;;;;;24.08;16.83;;;18.10;99.90;;;;;;4859233;29;20144;-91
2021/09/10 05:31:02;;;;;;;22.23;16.02;;;18.20;99.90;;;;;;4833001;29;20505;-91
2021/09/10 05:33:27;;;;;;;33.25;19.73;;;18.20;99.90;;;;;;4859241;29;20052;-91
2021/09/10 05:35:53;;;;;;;23.38;16.60;;;18.20;99.90;;;;;;4859783;29;20048;-91
2021/09/10 05:38:19;;;;;;;27.17;18.60;;;18.20;99.90;;;;;;4845903;29;20464;-90
2021/09/10 05:40:45;;;;;;;28.05;17.98;;;18.20;99.90;;;;;;4853690;29;20089;-90
2021/09/10 05:43:10;;;;;;;25.63;16.95;;;18.20;99.90;;;;;;4859745;29;20053;-90
2021/09/10 05:45:36;;;;;;;30.65;19.05;;;18.20;99.90;;;;;;4858464;29;20513;-90
2021/09/10 05:48:02;;;;;;;32.88;21.05;;;18.20;99.90;;;;;;4840030;29;20459;-90
2021/09/10 05:50:28;;;;;;;35.78;22.42;;;18.20;99.90;;;;;;4858736;29;20151;-91
2021/09/10 05:52:54;;;;;;;29.08;18.60;;;18.20;99.90;;;;;;4847265;29;20141;-91
2021/09/10 05:55:20;;;;;;;34.70;21.55;;;18.20;99.90;;;;;;4857922;29;20245;-89
2021/09/10 05:57:46;;;;;;;34.08;22.55;;;18.20;99.90;;;;;;4859128;29;20106;-91
2021/09/10 06:00:12;;;;;;;34.85;23.30;;;18.20;99.90;;;;;;4874819;29;20061;-90
2021/09/10 06:02:41;;;;;;;35.53;20.20;;;18.20;99.90;;;;;;4855203;29;20231;-90
2021/09/10 06:05:07;;;;;;;32.67;20.40;;;18.20;99.90;;;;;;4846120;29;20037;-90
2021/09/10 06:07:33;;;;;;;25.08;15.60;;;18.30;99.90;;;;;;4835826;29;20055;-90
2021/09/10 06:09:59;;;;;;;35.78;22.88;;;18.20;99.90;;;;;;4859503;29;20057;-90
2021/09/10 06:12:25;;;;;;;38.10;22.30;;;18.30;99.90;;;;;;4858318;29;20591;-90
2021/09/10 06:14:51;;;;;;;45.40;24.48;;;18.30;99.90;;;;;;4859345;29;20451;-90
2021/09/10 06:17:17;;;;;;;49.92;24.52;;;18.30;99.90;;;;;;4861847;29;20086;-90
2021/09/10 06:19:43;;;;;;;39.28;24.30;;;18.40;99.90;;;;;;4841933;29;20045;-90
2021/09/10 06:22:10;;;;;;;32.30;19.95;;;18.40;99.90;;;;;;4850139;29;20057;-89
2021/09/10 06:24:37;;;;;;;28.27;17.70;;;18.40;99.90;;;;;;4856566;29;20083;-90
2021/09/10 06:27:03;;;;;;;38.67;22.45;;;18.40;99.90;;;;;;4853701;29;20265;-91
2021/09/10 06:29:29;;;;;;;26.83;19.10;;;18.50;99.90;;;;;;4848156;29;20054;-91
2021/09/10 06:31:55;;;;;;;38.78;22.20;;;18.50;99.90;;;;;;4862342;29;20072;-90
2021/09/10 06:34:21;;;;;;;40.55;24.73;;;18.50;99.90;;;;;;4861794;29;20398;-90
2021/09/10 06:36:48;;;;;;;33.35;22.30;;;18.60;99.90;;;;;;4856754;29;20064;-90
2021/09/10 06:39:18;;;;;;;36.08;21.30;;;18.60;99.90;;;;;;4862956;29;20056;-91
2021/09/10 06:41:44;;;;;;;25.00;18.38;;;18.70;99.90;;;;;;4878369;29;20096;-91
2021/09/10 06:44:10;;;;;;;34.47;23.42;;;18.70;99.90;;;;;;4839399;29;20127;-89
2021/09/10 06:46:36;;;;;;;39.53;24.33;;;18.70;99.90;;;;;;4859528;29;20542;-89
2021/09/10 06:49:03;;;;;;;42.65;23.63;;;18.80;99.90;;;;;;4862829;29;20562;-89
2021/09/10 06:51:28;;;;;;;35.58;23.45;;;18.90;99.90;;;;;;4882721;29;20053;-89
2021/09/10 06:53:54;;;;;;;32.97;21.88;;;18.90;99.90;;;;;;4878084;29;20053;-90
2021/09/10 06:56:20;;;;;;;37.38;20.83;;;19.00;99.90;;;;;;4854068;29;20096;-90
2021/09/10 06:58:46;;;;;;;36.72;24.30;;;19.00;99.90;;;;;;4836978;29;20057;-89
2021/09/10 07:01:12;;;;;;;41.35;26.05;;;19.10;99.90;;;;;;4861949;29;20083;-89
2021/09/10 07:03:38;;;;;;;40.22;24.88;;;19.10;99.90;;;;;;4861288;29;20045;-89
2021/09/10 07:06:06;;;;;;;40.78;25.58;;;19.10;99.90;;;;;;4846653;29;20057;-89
2021/09/10 07:08:32;;;;;;;35.78;26.02;;;19.20;99.90;;;;;;4861327;29;20044;-89
2021/09/10 07:11:01;;;;;;;43.50;27.23;;;19.20;99.90;;;;;;4842803;29;20131;-89
2021/09/10 07:13:28;;;;;;;37.75;25.70;;;19.20;99.90;;;;;;4853929;29;20064;-90
2021/09/10 07:15:54;;;;;;;42.53;26.98;;;19.30;99.90;;;;;;4845996;29;20064;-90
2021/09/10 07:18:23;;;;;;;35.00;23.80;;;19.30;99.90;;;;;;4848154;29;20398;-89
2021/09/10 07:20:49;;;;;;;42.13;25.87;;;19.30;99.90;;;;;;4843592;29;20053;-90
2021/09/10 07:23:15;;;;;;;51.67;26.52;;;19.30;99.90;;;;;;4858482;29;20053;-90
2021/09/10 07:25:41;;;;;;;38.25;24.45;;;19.30;99.90;;;;;;4858129;29;20093;-89
2021/09/10 07:28:07;;;;;;;35.60;25.30;;;19.40;99.90;;;;;;4843255;29;20051;-90
2021/09/10 07:30:33;;;;;;;31.63;21.90;;;19.40;99.90;;;;;;4844538;29;20041;-90
2021/09/10 07:33:00;;;;;;;38.67;24.73;;;19.40;99.90;;;;;;4876617;29;20068;-88
2021/09/10 07:35:26;;;;;;;41.90;24.80;;;19.50;99.90;;;;;;4860918;29;20088;-90
2021/09/10 07:37:51;;;;;;;38.88;24.95;;;19.60;99.90;;;;;;4845328;29;20084;-89
2021/09/10 07:40:18;;;;;;;35.03;25.42;;;19.60;99.90;;;;;;4861319;29;20056;-89
2021/09/10 07:42:44;;;;;;;39.42;27.40;;;19.60;99.90;;;;;;4860000;29;20111;-89
2021/09/10 07:45:12;;;;;;;37.38;25.52;;;19.70;99.90;;;;;;4860875;29;20084;-89
2021/09/10 07:47:41;;;;;;;34.47;22.45;;;19.70;99.90;;;;;;4860784;29;20482;-90
2021/09/10 07:50:08;;;;;;;24.85;19.60;;;19.80;99.90;;;;;;4831231;29;20084;-90
2021/09/10 07:52:34;;;;;;;23.92;17.25;;;19.80;99.90;;;;;;4845429;29;20494;-89
2021/09/10 07:55:00;;;;;;;22.55;15.68;;;19.90;99.90;;;;;;4845491;29;20083;-88
2021/09/10 07:57:26;;;;;;;21.20;13.93;;;19.90;99.90;;;;;;4845615;29;20048;-90
2021/09/10 07:59:55;;;;;;;22.77;14.88;;;20.00;99.90;;;;;;4861080;29;20061;-90
2021/09/10 08:02:22;;;;;;;19.67;14.88;;;20.10;99.90;;;;;;4865892;29;20063;-89
2021/09/10 08:04:48;;;;;;;20.17;15.35;;;20.20;99.90;;;;;;4860235;29;20071;-87
2021/09/10 08:07:14;;;;;;;19.98;14.02;;;20.30;99.90;;;;;;4836822;29;20494;-89
2021/09/10 08:09:40;;;;;;;18.80;13.85;;;20.40;99.90;;;;;;4843820;29;20052;-89
2021/09/10 08:12:06;;;;;;;21.50;14.32;;;20.40;99.90;;;;;;4853670;29;20484;-90
2021/09/10 08:14:32;;;;;;;21.70;14.10;;;20.50;99.90;;;;;;4859006;29;20081;-91
2021/09/10 08:16:57;;;;;;;25.80;14.45;;;20.50;99.90;;;;;;4828570;29;20077;-89
2021/09/10 08:19:24;;;;;;;19.58;13.68;;;20.50;99.90;;;;;;4853475;29;20619;-89
2021/09/10 08:21:50;;;;;;;19.70;14.85;;;20.70;99.90;;;;;;4857358;29;20052;-89
2021/09/10 08:24:16;;;;;;;20.98;14.85;;;20.80;99.90;;;;;;4864941;29;20052;-89
2021/09/10 08:26:42;;;;;;;22.17;16.60;;;20.90;99.90;;;;;;4858594;29;20075;-89
2021/09/10 08:29:07;;;;;;;26.90;17.33;;;21.00;99.90;;;;;;4835133;29;20156;-89
2021/09/10 08:31:33;;;;;;;27.17;18.73;;;21.10;99.90;;;;;;4842132;29;20049;-90
2021/09/10 08:34:00;;;;;;;25.23;19.42;;;21.20;99.90;;;;;;4858901;29;20128;-90
2021/09/10 08:36:26;;;;;;;33.08;21.70;;;21.30;99.90;;;;;;4882615;29;20048;-90
2021/09/10 08:38:52;;;;;;;24.80;19.75;;;21.30;99.90;;;;;;4865617;29;20624;-89
2021/09/10 08:41:22;;;;;;;26.63;18.70;;;21.40;99.90;;;;;;4860534;29;20053;-89
2021/09/10 08:43:49;;;;;;;28.83;20.35;;;21.50;99.90;;;;;;4869127;29;20064;-90
2021/09/10 08:46:15;;;;;;;32.25;21.10;;;21.60;99.90;;;;;;4847566;29;20053;-89
2021/09/10 08:48:46;;;;;;;32.83;21.98;;;21.70;99.90;;;;;;4853264;29;20045;-90
2021/09/10 08:51:13;;;;;;;33.38;22.65;;;21.80;99.90;;;;;;4867687;29;20045;-91
2021/09/10 08:53:38;;;;;;;37.67;23.60;;;21.90;99.90;;;;;;4864089;29;20128;-90
2021/09/10 08:56:05;;;;;;;40.17;24.35;;;21.90;99.90;;;;;;4860610;29;20442;-90
2021/09/10 08:58:30;;;;;;;29.10;21.75;;;21.90;99.90;;;;;;4863189;29;20053;-90
2021/09/10 09:00:59;;;;;;;38.15;22.38;;;22.00;99.90;;;;;;4870657;29;20056;-90
2021/09/10 09:03:29;;;;;;;38.67;25.88;;;22.10;99.90;;;;;;4844396;29;20387;-90
2021/09/10 09:05:54;;;;;;;36.25;24.23;;;22.30;99.90;;;;;;4861175;29;20065;-89
2021/09/10 09:08:20;;;;;;;38.72;24.35;;;22.20;99.90;;;;;;4848049;29;20108;-89
2021/09/10 09:11:07;;;;;;;31.10;22.17;;;22.20;99.90;;;;;;4847855;29;20076;-91
2021/09/10 09:13:38;;;;;;;33.97;23.30;;;22.20;99.90;;;;;;4860594;29;20109;-91
2021/09/10 09:16:19;;;;;;;32.97;21.65;;;22.20;99.90;;;;;;4863655;29;20055;-90
2021/09/10 09:18:44;;;;;;;31.58;22.50;;;22.20;99.90;;;;;;4875285;29;20184;-90
2021/09/10 09:21:11;;;;;;;31.40;24.83;;;22.30;99.90;;;;;;4861160;29;20123;-90
2021/09/10 09:23:36;;;;;;;31.25;23.80;;;22.40;99.90;;;;;;4845109;29;20053;-89
2021/09/10 09:26:14;;;;;;;39.65;24.75;;;22.60;99.90;;;;;;4863901;29;20052;-90
2021/09/10 09:28:39;;;;;;;41.92;26.70;;;22.80;99.90;;;;;;4859750;29;20044;-91
2021/09/10 09:31:08;;;;;;;40.25;26.15;;;23.00;99.90;;;;;;4850684;29;20497;-91
2021/09/10 09:33:39;;;;;;;39.13;24.48;;;23.20;99.90;;;;;;4845162;29;20049;-92
2021/09/10 09:36:09;;;;;;;34.90;25.80;;;23.40;99.90;;;;;;4860749;29;20052;-90
2021/09/10 09:38:38;;;;;;;39.55;25.58;;;23.40;99.90;;;;;;4860080;29;20104;-90
2021/09/10 09:41:07;;;;;;;32.40;23.52;;;23.40;99.90;;;;;;4859962;29;20116;-90
2021/09/10 09:43:40;;;;;;;34.28;22.77;;;23.50;99.90;;;;;;4875875;29;20061;-91
2021/09/10 09:46:12;;;;;;;36.50;23.50;;;23.60;99.90;;;;;;4861259;29;20053;-89
2021/09/10 09:48:41;;;;;;;29.17;21.13;;;23.70;99.90;;;;;;4871405;29;20057;-90
2021/09/10 09:51:08;;;;;;;36.13;21.30;;;23.80;99.90;;;;;;4860301;29;20052;-95
2021/09/10 09:53:36;;;;;;;39.30;25.52;;;23.70;99.90;;;;;;4865652;29;20065;-91
2021/09/10 09:56:04;;;;;;;38.17;24.00;;;23.40;99.90;;;;;;4877003;29;20048;-94
2021/09/10 09:58:31;;;;;;;35.63;21.40;;;23.50;99.90;;;;;;4893723;29;20065;-92
2021/09/10 10:00:58;;;;;;;27.85;19.60;;;23.40;99.90;;;;;;4875917;29;20190;-95
2021/09/10 10:03:24;;;;;;;34.45;21.33;;;23.40;99.90;;;;;;4862188;29;20053;-94
2021/09/10 10:06:02;;;;;;;44.22;31.17;;;23.30;99.90;;;;;;4879629;29;20060;-94
2021/09/10 10:08:43;;;;;;;48.08;32.30;;;23.30;99.90;;;;;;4867625;29;20048;-95
2021/09/10 10:11:14;;;;;;;34.78;25.63;;;23.30;99.90;;;;;;4879150;29;20124;-94
2021/09/10 10:13:41;;;;;;;32.03;22.63;;;23.30;99.90;;;;;;4862084;29;20049;-90
2021/09/10 10:16:07;;;;;;;43.50;30.02;;;23.30;99.90;;;;;;4862196;29;20044;-94
2021/09/10 10:18:42;;;;;;;33.95;23.92;;;23.30;99.90;;;;;;4859620;29;20081;-94
2021/09/10 10:21:14;;;;;;;32.08;23.00;;;23.30;99.90;;;;;;4875276;29;20079;-94
2021/09/10 10:23:42;;;;;;;30.15;21.13;;;23.20;99.90;;;;;;4864741;29;20041;-91
2021/09/10 10:26:16;;;;;;;33.72;24.52;;;23.20;99.90;;;;;;4839090;29;20084;-95
2021/09/10 10:28:50;;;;;;;35.35;23.38;;;23.20;99.90;;;;;;4861244;29;20059;-91
2021/09/10 10:31:18;;;;;;;35.85;25.77;;;23.10;99.90;;;;;;4847456;29;20493;-95
2021/09/10 10:33:48;;;;;;;30.75;23.25;;;23.10;99.90;;;;;;4846541;29;20064;-95
2021/09/10 10:36:33;;;;;;;33.63;24.60;;;23.10;99.90;;;;;;4869166;29;20057;-93
2021/09/10 10:39:26;;;;;;;31.30;22.90;;;23.20;99.90;;;;;;4868272;29;20065;-95
2021/09/10 10:41:57;;;;;;;38.85;26.40;;;23.30;99.90;;;;;;4857425;29;20041;-94
2021/09/10 10:44:46;;;;;;;33.80;23.67;;;23.40;99.90;;;;;;4859333;29;20059;-95
2021/09/10 10:47:30;;;;;;;33.55;23.40;;;23.60;99.90;;;;;;4853773;29;20093;-95
2021/09/10 10:49:56;;;;;;;42.42;24.50;;;23.70;99.90;;;;;;4859796;29;20057;-95
2021/09/10 10:52:30;;;;;;;26.88;20.40;;;23.90;99.90;;;;;;4846360;29;20141;-92
2021/09/10 10:55:22;;;;;;;26.15;18.85;;;24.00;99.90;;;;;;4887887;29;20060;-95
2021/09/10 10:58:14;;;;;;;22.02;16.92;;;24.10;99.90;;;;;;4854044;29;20068;-95
2021/09/10 11:00:48;;;;;;;22.38;17.88;;;24.20;99.90;;;;;;4860849;29;20053;-91
2021/09/10 11:03:13;;;;;;;20.25;16.33;;;24.30;99.90;;;;;;4871773;29;20048;-92
2021/09/10 11:05:43;;;;;;;21.38;17.08;;;24.30;99.90;;;;;;4862648;29;20045;-95
2021/09/10 11:08:09;;;;;;;21.05;16.25;;;24.30;99.90;;;;;;4829510;29;20049;-95
2021/09/10 11:10:35;;;;;;;20.40;15.43;;;24.30;99.90;;;;;;4844886;29;20053;-95
2021/09/10 11:13:01;;;;;;;24.10;16.17;;;24.30;99.90;;;;;;4870270;29;20057;-95
2021/09/10 11:15:30;;;;;;;20.27;15.18;;;24.40;99.90;;;;;;4848564;29;20052;-95
2021/09/10 11:18:03;;;;;;;22.27;17.23;;;24.50;99.90;;;;;;4850077;29;20049;-95
2021/09/10 11:20:34;;;;;;;20.13;16.77;;;24.60;99.90;;;;;;4870496;29;20109;-95
2021/09/10 11:23:05;;;;;;;21.45;16.88;;;24.80;99.90;;;;;;4860923;29;20053;-96
2021/09/10 11:25:31;;;;;;;24.23;17.20;;;25.00;99.90;;;;;;4861139;29;20045;-95
2021/09/10 11:27:57;;;;;;;29.23;18.65;;;25.30;99.90;;;;;;4845160;29;20056;-95
2021/09/10 11:30:26;;;;;;;22.35;17.20;;;25.40;99.90;;;;;;4862494;29;20049;-94
2021/09/10 11:33:00;;;;;;;26.25;18.23;;;25.50;99.90;;;;;;4861134;29;20049;-96
2021/09/10 11:35:29;;;;;;;24.48;16.92;;;25.50;99.90;;;;;;4877645;29;20056;-95
2021/09/10 11:37:58;;;;;;;20.23;16.30;;;25.60;99.90;;;;;;4874385;29;20049;-95
2021/09/10 11:40:34;;;;;;;21.30;17.27;;;25.70;99.90;;;;;;4861438;29;20492;-96
2021/09/10 11:43:11;;;;;;;24.35;17.75;;;25.80;99.90;;;;;;4856802;29;20060;-95
2021/09/10 11:45:40;;;;;;;21.33;17.70;;;25.70;99.90;;;;;;4855541;29;20117;-95
2021/09/10 11:48:08;;;;;;;19.73;15.50;;;25.80;99.90;;;;;;4856761;29;20120;-93
2021/09/10 11:50:55;;;;;;;20.45;15.25;;;25.60;99.90;;;;;;4836952;29;20348;-93
2021/09/10 11:53:28;;;;;;;16.95;14.15;;;25.60;99.90;;;;;;4872470;29;20525;-94
2021/09/10 11:56:07;;;;;;;24.33;17.27;;;25.60;99.90;;;;;;4860642;29;20064;-94
2021/09/10 11:58:50;;;;;;;23.48;16.45;;;25.70;99.90;;;;;;4850881;29;20067;-95
2021/09/10 12:01:16;;;;;;;19.83;15.38;;;25.70;99.90;;;;;;4871893;29;20128;-96
2021/09/10 12:03:52;;;;;;;20.42;15.27;;;25.90;99.90;;;;;;4857723;29;20494;-93
2021/09/10 12:06:18;;;;;;;30.27;17.17;;;25.80;99.90;;;;;;4855049;29;20072;-93
2021/09/10 12:09:10;;;;;;;15.48;13.88;;;25.70;99.90;;;;;;4856651;29;20063;-95
2021/09/10 12:11:38;;;;;;;22.27;14.10;;;26.00;99.90;;;;;;4848903;29;20049;-96
2021/09/10 12:14:14;;;;;;;21.90;14.95;;;26.10;99.90;;;;;;4856426;29;20137;-96
2021/09/10 12:16:40;;;;;;;18.25;14.50;;;26.40;99.90;;;;;;4856206;29;20041;-96
2021/09/10 12:19:06;;;;;;;16.83;13.55;;;26.50;99.90;;;;;;4844795;29;20056;-95
2021/09/10 12:21:34;;;;;;;17.90;14.32;;;26.60;99.90;;;;;;4876332;29;20056;-96
2021/09/10 12:24:12;;;;;;;20.27;14.20;;;26.70;99.90;;;;;;4852302;29;20509;-96
2021/09/10 12:26:49;;;;;;;19.67;14.07;;;26.80;99.90;;;;;;4858311;29;20132;-96
2021/09/10 12:29:24;;;;;;;17.13;13.93;;;26.70;99.90;;;;;;4865307;29;20088;-94
2021/09/10 12:31:51;;;;;;;15.85;12.15;;;26.80;99.90;;;;;;4855107;29;20201;-91